Time;durP1;ratioP1;P1;durP2;ratioP2;P2;SDS_P1;SDS_P2;PMS_P1;PMS_P2;Temp;Humidity;BMP_temperature;BMP_pressure;BME280_temperature;BME280_humidity;BME280_pressure;Samples;Min_cycle;Max_cycle;Signal;HPM_P1;HPM_P2
2022/01/27 00:01:11;;;;;;;;;;;;;;;4.02;97.25;100380.41;1712558;81;20161;-81
2022/01/27 00:03:44;;;;;;;;;;;;;;;3.76;98.41;100384.87;1706681;81;20125;-80
2022/01/27 00:06:08;;;;;;;;;;;;;;;3.71;99.00;100379.11;1706109;81;20134;-85
2022/01/27 00:11:15;;;;;;;;;;;;;;;3.85;98.09;100368.52;1706971;81;20618;-86
2022/01/27 00:13:57;;;;;;;;;;;;;;;3.78;98.38;100373.83;1710596;81;20117;-87
2022/01/27 00:16:21;;;;;;;;;;;;;;;3.85;98.41;100368.52;1701572;82;20170;-82
2022/01/27 00:18:47;;;;;;;;;;;;;;;3.66;98.95;100379.42;1708717;81;20115;-86
2022/01/27 00:21:14;;;;;;;;;;;;;;;3.97;97.72;100368.63;1710635;82;20105;-82
2022/01/27 00:23:45;;;;;;;;;;;;;;;3.95;97.21;100364.34;1710122;81;21194;-86
2022/01/27 00:26:11;;;;;;;;;;;;;;;3.75;98.18;100385.80;1712771;81;20141;-82
2022/01/27 00:28:37;;;;;;;;;;;;;;;3.85;98.75;100359.37;1710242;82;21117;-82
2022/01/27 00:31:02;;;;;;;;;;;;;;;4.01;97.49;100364.83;1710771;81;20221;-90
2022/01/27 00:33:28;;;;;;;;;;;;;;;3.90;98.24;100358.61;1712393;82;20457;-82
2022/01/27 00:35:54;;;;;;;;;;;;;;;3.85;98.10;100356.77;1715946;81;20601;-84
2022/01/27 00:38:19;;;;;;;;;;;;;;;3.73;99.16;100358.48;1716310;81;20186;-85
2022/01/27 00:40:45;;;;;;;;;;;;;;;3.76;98.83;100350.91;1712220;81;21355;-84
2022/01/27 00:43:11;;;;;;;;;;;;;;;3.50;100.00;100354.84;1712895;82;20732;-84
2022/01/27 00:45:36;;;;;;;;;;;;;;;3.48;100.00;100343.69;1711083;81;20162;-84
2022/01/27 00:48:04;;;;;;;;;;;;;;;3.39;100.00;100356.89;1712667;82;20176;-86
2022/01/27 00:50:32;;;;;;;;;;;;;;;3.48;100.00;100360.66;1711296;82;20478;-82
2022/01/27 00:53:00;;;;;;;;;;;;;;;3.55;100.00;100337.08;1712907;81;22014;-81
2022/01/27 00:55:26;;;;;;;;;;;;;;;3.45;100.00;100354.34;1709591;83;20501;-83
2022/01/27 01:00:41;;;;;;;;;;;;;;;3.53;100.00;100358.55;1709630;82;20129;-86
2022/01/27 01:03:07;;;;;;;;;;;;;;;3.76;99.31;100348.30;1706172;82;20131;-83
2022/01/27 01:05:48;;;;;;;;;;;;;;;3.79;98.33;100367.64;1708368;82;20557;-81
2022/01/27 01:16:32;;;;;;;;;;;;;;;3.58;99.79;100351.23;1719229;82;20168;-84
2022/01/27 01:29:29;;;;;;;;;;;;;;;3.56;100.00;100354.42;1707806;82;20791;-88
2022/01/27 01:34:29;;;;;;;;;;;;;;;3.76;99.56;100340.47;1704158;82;20141;-80
2022/01/27 01:37:02;;;;;;;;;;;;;;;3.82;99.21;100352.23;1711301;82;20159;-81
2022/01/27 01:39:27;;;;;;;;;;;;;;;3.87;99.51;100347.52;1704513;82;20114;-80
2022/01/27 01:41:53;;;;;;;;;;;;;;;3.83;99.14;100361.27;1707788;82;20227;-83
2022/01/27 01:44:19;;;;;;;;;;;;;;;3.82;99.63;100334.78;1704358;82;21089;-85
2022/01/27 01:46:45;;;;;;;;;;;;;;;3.88;98.93;100360.95;1703379;82;20166;-86
2022/01/27 01:49:10;;;;;;;;;;;;;;;3.75;99.98;100353.16;1707017;82;20472;-81
2022/01/27 01:51:37;;;;;;;;;;;;;;;3.77;99.61;100346.85;1709132;82;20411;-87
2022/01/27 01:54:03;;;;;;;;;;;;;;;3.56;100.00;100367.48;1706983;82;20204;-86
2022/01/27 01:56:28;;;;;;;;;;;;;;;3.93;99.84;100337.48;1713963;82;21093;-84
2022/01/27 01:58:54;;;;;;;;;;;;;;;3.66;100.00;100336.81;1706562;82;20411;-86
2022/01/27 02:01:19;;;;;;;;;;;;;;;3.69;100.00;100337.42;1707565;82;20115;-82
2022/01/27 02:03:46;;;;;;;;;;;;;;;3.63;100.00;100323.97;1710325;82;20154;-81
2022/01/27 02:06:21;;;;;;;;;;;;;;;3.76;100.00;100345.69;1704424;82;20197;-81
2022/01/27 02:09:01;;;;;;;;;;;;;;;3.63;100.00;100339.64;1704194;82;20217;-82
2022/01/27 02:19:19;;;;;;;;;;;;;;;3.44;100.00;100351.35;1739597;81;20154;-84
2022/01/27 02:21:59;;;;;;;;;;;;;;;3.51;100.00;100336.95;1741189;81;21992;-86
2022/01/27 02:24:26;;;;;;;;;;;;;;;3.63;100.00;100339.64;1739203;81;20181;-79
2022/01/27 02:26:52;;;;;;;;;;;;;;;3.64;100.00;100329.56;1742673;81;20283;-82
2022/01/27 02:29:18;;;;;;;;;;;;;;;3.63;100.00;100326.58;1739759;81;20152;-89
2022/01/27 02:31:45;;;;;;;;;;;;;;;3.82;100.00;100336.09;1741183;81;20190;-82
2022/01/27 02:34:11;;;;;;;;;;;;;;;3.76;100.00;100325.61;1736240;81;20986;-81
2022/01/27 02:36:37;;;;;;;;;;;;;;;3.83;100.00;100329.10;1741385;81;20641;-84
2022/01/27 02:39:03;;;;;;;;;;;;;;;3.47;100.00;100321.59;1743615;81;20129;-86
2022/01/27 02:41:30;;;;;;;;;;;;;;;3.66;100.00;100316.75;1732282;81;20336;-81
2022/01/27 02:43:56;;;;;;;;;;;;;;;3.63;100.00;100316.14;1743293;80;20172;-87
2022/01/27 02:46:36;;;;;;;;;;;;;;;3.65;100.00;100298.57;1743678;81;21112;-82
2022/01/27 02:49:02;;;;;;;;;;;;;;;3.64;100.00;100319.13;1733992;81;20220;-84
2022/01/27 02:51:28;;;;;;;;;;;;;;;3.79;100.00;100303.65;1741697;81;20149;-82
2022/01/27 02:53:57;;;;;;;;;;;;;;;3.58;100.00;100319.06;1737194;81;20625;-81
2022/01/27 02:56:22;;;;;;;;;;;;;;;3.65;100.00;100298.57;1744166;81;20209;-87
2022/01/27 02:58:48;;;;;;;;;;;;;;;3.71;100.00;100304.67;1737206;81;22404;-82
2022/01/27 03:01:19;;;;;;;;;;;;;;;3.79;100.00;100295.81;1743147;81;20134;-84
2022/01/27 03:03:45;;;;;;;;;;;;;;;3.81;100.00;100301.78;1738477;81;20478;-82
2022/01/27 03:06:11;;;;;;;;;;;;;;;3.69;100.00;100296.12;1730026;81;20152;-81
2022/01/27 03:08:36;;;;;;;;;;;;;;;3.95;100.00;100293.79;1735496;81;20162;-82
2022/01/27 03:11:03;;;;;;;;;;;;;;;4.06;100.00;100289.58;1739458;81;21040;-81
2022/01/27 03:13:30;;;;;;;;;;;;;;;3.79;100.00;100297.13;1738079;80;20182;-81
2022/01/27 03:15:56;;;;;;;;;;;;;;;3.83;100.00;100278.16;1735159;81;21020;-85
2022/01/27 03:18:22;;;;;;;;;;;;;;;3.69;100.00;100297.42;1738811;81;20136;-87
2022/01/27 03:20:47;;;;;;;;;;;;;;;3.76;100.00;100280.39;1734327;81;20164;-83
2022/01/27 03:23:13;;;;;;;;;;;;;;;3.83;100.00;100284.22;1733225;81;21046;-81
2022/01/27 03:25:38;;;;;;;;;;;;;;;3.78;100.00;100276.70;1740444;81;20168;-81
2022/01/27 03:28:04;;;;;;;;;;;;;;;3.92;100.00;100272.28;1733600;81;20254;-81
2022/01/27 03:30:30;;;;;;;;;;;;;;;3.70;100.00;100280.83;1744373;81;20761;-82
2022/01/27 03:32:56;;;;;;;;;;;;;;;3.83;100.00;100272.94;1738405;81;20235;-83
2022/01/27 03:35:21;;;;;;;;;;;;;;;3.70;100.00;100278.21;1744879;81;21089;-81
2022/01/27 03:37:47;;;;;;;;;;;;;;;3.90;100.00;100280.23;1732139;81;20160;-89
2022/01/27 03:40:12;;;;;;;;;;;;;;;3.82;100.00;100278.62;1740955;81;20166;-83
2022/01/27 03:42:45;;;;;;;;;;;;;;;3.92;100.00;100273.59;1737407;81;20176;-81
2022/01/27 03:45:07;;;;;;;;;;;;;;;3.72;100.00;100265.87;1737094;81;20212;-83
2022/01/27 03:47:32;;;;;;;;;;;;;;;3.68;100.00;100272.24;1738262;81;21054;-89
2022/01/27 03:49:58;;;;;;;;;;;;;;;3.62;100.00;100267.45;1739905;81;20165;-84
2022/01/27 03:52:23;;;;;;;;;;;;;;;3.81;100.00;100288.72;1738816;81;20486;-87
2022/01/27 03:54:49;;;;;;;;;;;;;;;3.75;100.00;100286.55;1739791;81;20169;-84
2022/01/27 03:57:14;;;;;;;;;;;;;;;3.59;100.00;100275.88;1734441;81;20122;-82
2022/01/27 03:59:40;;;;;;;;;;;;;;;3.76;100.00;100280.39;1737893;81;21172;-81
2022/01/27 04:02:06;;;;;;;;;;;;;;;3.62;100.00;100280.06;1736631;81;20240;-81
2022/01/27 04:04:32;;;;;;;;;;;;;;;3.93;100.00;100269.56;1734600;81;20189;-83
2022/01/27 04:06:58;;;;;;;;;;;;;;;3.62;100.00;100290.95;1738994;80;20213;-83
2022/01/27 04:09:24;;;;;;;;;;;;;;;3.53;100.00;100272.39;1739307;81;20121;-81
2022/01/27 04:11:50;;;;;;;;;;;;;;;3.63;100.00;100277.79;1739402;81;21158;-81
2022/01/27 04:14:15;;;;;;;;;;;;;;;3.69;100.00;100279.14;1742368;81;20582;-82
2022/01/27 04:16:41;;;;;;;;;;;;;;;3.70;100.00;100254.70;1741189;81;20208;-81
2022/01/27 04:19:07;;;;;;;;;;;;;;;3.55;100.00;100271.80;1735962;81;20132;-81
2022/01/27 04:21:32;;;;;;;;;;;;;;;3.64;100.00;100243.39;1737248;81;20291;-82
2022/01/27 04:23:58;;;;;;;;;;;;;;;3.61;100.00;100243.61;1735358;80;21115;-88
2022/01/27 04:26:32;;;;;;;;;;;;;;;3.82;100.00;100245.14;1737023;81;20144;-83
2022/01/27 04:28:52;;;;;;;;;;;;;;;3.79;100.00;100248.80;1729268;81;20159;-88
2022/01/27 04:31:18;;;;;;;;;;;;;;;3.79;100.00;100274.91;1738900;81;20197;-83
2022/01/27 04:33:43;;;;;;;;;;;;;;;3.67;100.00;100270.59;1733780;81;20159;-82
2022/01/27 04:36:29;;;;;;;;;;;;;;;3.61;100.00;100261.41;1741409;81;21147;-82
2022/01/27 04:39:00;;;;;;;;;;;;;;;3.80;100.00;100250.48;1733170;81;20120;-84
2022/01/27 04:41:25;;;;;;;;;;;;;;;3.94;100.00;100243.77;1734016;81;20172;-85
2022/01/27 04:43:55;;;;;;;;;;;;;;;3.84;100.00;100244.09;1737443;81;20126;-82
2022/01/27 04:48:48;;;;;;;;;;;;;;;3.66;100.00;100255.86;1736465;81;20142;-81
2022/01/27 04:51:13;;;;;;;;;;;;;;;3.71;100.00;100254.59;1732299;81;20136;-81
2022/01/27 04:53:43;;;;;;;;;;;;;;;3.78;100.00;100254.98;1729954;80;20625;-82
2022/01/27 04:56:07;;;;;;;;;;;;;;;3.76;100.00;100229.45;1731608;81;20451;-83
2022/01/27 04:58:34;;;;;;;;;;;;;;;3.83;100.00;100243.72;1738771;80;20521;-81
2022/01/27 05:01:02;;;;;;;;;;;;;;;3.92;100.00;100229.17;1735224;80;22039;-82
2022/01/27 05:03:39;;;;;;;;;;;;;;;4.15;99.34;100228.80;1736089;81;20132;-81
2022/01/27 05:06:01;;;;;;;;;;;;;;;4.09;98.93;100221.41;1738671;81;20164;-81
2022/01/27 05:08:26;;;;;;;;;;;;;;;3.96;99.56;100229.30;1733302;81;20538;-82
2022/01/27 05:13:28;;;;;;;;;;;;;;;3.92;99.21;100237.02;1717210;81;20132;-81
2022/01/27 05:15:53;;;;;;;;;;;;;;;3.87;99.47;100211.22;1740310;81;20163;-81
2022/01/27 05:18:20;;;;;;;;;;;;;;;4.12;98.57;100206.33;1749998;81;20202;-80
2022/01/27 05:20:46;;;;;;;;;;;;;;;4.17;98.10;100200.77;1751863;81;20503;-79
2022/01/27 05:23:11;;;;;;;;;;;;;;;4.33;97.20;100187.38;1752637;80;20274;-88
2022/01/27 05:25:37;;;;;;;;;;;;;;;4.29;97.44;100177.64;1747445;81;22639;-88
2022/01/27 05:28:03;;;;;;;;;;;;;;;4.17;97.75;100180.34;1719336;81;20188;-82
2022/01/27 05:30:29;;;;;;;;;;;;;;;4.21;97.57;100170.00;1746677;81;20829;-81
2022/01/27 05:32:54;;;;;;;;;;;;;;;4.40;96.86;100170.78;1745903;80;20112;-89
2022/01/27 05:35:20;;;;;;;;;;;;;;;4.27;96.86;100183.46;1751374;81;20150;-82
2022/01/27 05:37:45;;;;;;;;;;;;;;;4.11;97.46;100168.07;1746472;81;21154;-83
2022/01/27 05:40:12;;;;;;;;;;;;;;;4.20;97.56;100180.11;1748250;80;20497;-84
2022/01/27 05:42:37;;;;;;;;;;;;;;;4.42;96.61;100167.56;1742968;81;20239;-83
2022/01/27 05:45:03;;;;;;;;;;;;;;;4.38;97.20;100176.58;1743102;80;20130;-81
2022/01/27 05:47:29;;;;;;;;;;;;;;;4.16;97.64;100172.95;1748674;80;20245;-87
2022/01/27 05:49:55;;;;;;;;;;;;;;;4.24;97.21;100169.77;1749977;80;21138;-84
2022/01/27 05:52:21;;;;;;;;;;;;;;;4.39;96.46;100174.33;1744554;80;20153;-82
2022/01/27 05:54:47;;;;;;;;;;;;;;;4.24;97.15;100169.31;1746733;80;20157;-82
2022/01/27 05:57:13;;;;;;;;;;;;;;;4.16;97.77;100178.18;1753773;80;20547;-82
2022/01/27 05:59:39;;;;;;;;;;;;;;;4.30;96.99;100164.08;1750306;80;20647;-82
2022/01/27 06:02:05;;;;;;;;;;;;;;;4.25;97.31;100156.59;1748267;80;21111;-86
2022/01/27 06:04:31;;;;;;;;;;;;;;;4.10;98.21;100181.25;1745553;80;20160;-84
2022/01/27 06:06:56;;;;;;;;;;;;;;;4.20;98.16;100166.56;1750701;80;20304;-84
2022/01/27 06:09:22;;;;;;;;;;;;;;;4.24;98.44;100161.92;1754624;80;20124;-84
2022/01/27 06:11:47;;;;;;;;;;;;;;;4.35;97.69;100161.98;1743901;80;20431;-82
2022/01/27 06:14:13;;;;;;;;;;;;;;;4.52;97.16;100152.83;1751449;80;22264;-87
2022/01/27 06:16:39;;;;;;;;;;;;;;;4.08;99.66;100167.47;1748903;80;20169;-81
2022/01/27 06:19:06;;;;;;;;;;;;;;;4.10;100.00;100157.73;1742718;81;20142;-81
2022/01/27 06:21:34;;;;;;;;;;;;;;;4.40;99.79;100140.23;1736743;80;20361;-84
2022/01/27 06:24:00;;;;;;;;;;;;;;;4.34;99.00;100139.39;1741320;81;20158;-83
2022/01/27 06:26:27;;;;;;;;;;;;;;;4.13;100.00;100144.44;1739442;81;21182;-82
2022/01/27 06:28:53;;;;;;;;;;;;;;;4.02;100.00;100142.63;1737211;81;20183;-81
2022/01/27 06:31:19;;;;;;;;;;;;;;;4.36;99.67;100147.11;1741284;81;20114;-79
2022/01/27 06:33:44;;;;;;;;;;;;;;;4.29;99.65;100140.22;1739920;81;20609;-80
2022/01/27 06:36:10;;;;;;;;;;;;;;;4.23;100.00;100132.35;1740519;81;20209;-79
2022/01/27 06:38:36;;;;;;;;;;;;;;;4.18;100.00;100124.03;1740164;81;21104;-82
2022/01/27 06:41:01;;;;;;;;;;;;;;;4.17;100.00;100116.31;1739652;81;20295;-81
2022/01/27 06:43:27;;;;;;;;;;;;;;;4.11;100.00;100108.45;1736346;81;20152;-81
2022/01/27 06:45:52;;;;;;;;;;;;;;;4.16;100.00;100110.23;1732133;81;20171;-85
2022/01/27 06:48:20;;;;;;;;;;;;;;;4.20;100.00;100101.22;1736572;81;20141;-83
2022/01/27 06:50:51;;;;;;;;;;;;;;;4.14;100.00;100087.31;1738073;81;20636;-84
2022/01/27 06:53:13;;;;;;;;;;;;;;;4.38;99.61;100079.84;1733531;81;21008;-83
2022/01/27 06:55:39;;;;;;;;;;;;;;;4.21;99.72;100092.44;1737521;81;20132;-79
2022/01/27 06:58:05;;;;;;;;;;;;;;;4.29;99.76;100091.37;1740710;80;20177;-81
2022/01/27 07:00:30;;;;;;;;;;;;;;;4.21;99.23;100089.83;1739620;81;20149;-81
2022/01/27 07:02:56;;;;;;;;;;;;;;;4.11;99.88;100103.22;1732961;81;21122;-83
2022/01/27 07:05:21;;;;;;;;;;;;;;;4.17;99.38;100090.17;1738763;81;20450;-80
2022/01/27 07:07:47;;;;;;;;;;;;;;;4.11;99.41;100109.75;1737896;81;20243;-86
2022/01/27 07:10:12;;;;;;;;;;;;;;;4.04;99.76;100100.70;1738253;81;20901;-78
2022/01/27 07:12:41;;;;;;;;;;;;;;;4.21;99.08;100084.59;1737635;81;20191;-82
2022/01/27 07:15:07;;;;;;;;;;;;;;;4.36;98.00;100086.98;1733793;81;21951;-78
2022/01/27 07:17:33;;;;;;;;;;;;;;;4.13;98.73;100083.02;1733486;80;20159;-81
2022/01/27 07:19:58;;;;;;;;;;;;;;;4.30;97.76;100083.90;1733555;80;20306;-77
2022/01/27 07:22:24;;;;;;;;;;;;;;;4.26;97.71;100092.91;1744279;80;20140;-82
2022/01/27 07:24:49;;;;;;;;;;;;;;;4.17;98.07;100098.84;1732419;80;20166;-81
2022/01/27 07:27:15;;;;;;;;;;;;;;;4.28;97.60;100083.16;1738240;80;21152;-78
2022/01/27 07:29:41;;;;;;;;;;;;;;;4.19;98.33;100086.48;1734463;80;21220;-80
2022/01/27 07:32:07;;;;;;;;;;;;;;;3.98;99.36;100082.87;1736207;80;20544;-80
2022/01/27 07:34:32;;;;;;;;;;;;;;;4.16;98.63;100074.95;1734570;80;20776;-83
2022/01/27 07:37:01;;;;;;;;;;;;;;;4.03;99.29;100085.98;1732423;80;20108;-82
2022/01/27 07:39:25;;;;;;;;;;;;;;;4.14;98.96;100090.75;1727297;80;20932;-83
2022/01/27 07:41:51;;;;;;;;;;;;;;;4.20;98.31;100084.23;1735993;80;20163;-83
2022/01/27 07:44:17;;;;;;;;;;;;;;;4.06;99.33;100086.58;1741116;80;20222;-84
2022/01/27 07:46:42;;;;;;;;;;;;;;;4.16;98.93;100078.05;1734425;80;20154;-80
2022/01/27 07:49:08;;;;;;;;;;;;;;;4.20;98.44;100080.31;1738838;80;20137;-81
2022/01/27 07:51:34;;;;;;;;;;;;;;;4.21;98.12;100095.05;1729042;80;21223;-81
2022/01/27 07:53:59;;;;;;;;;;;;;;;4.08;99.08;100083.85;1734237;80;20207;-80
2022/01/27 07:56:26;;;;;;;;;;;;;;;4.20;98.25;100092.07;1727904;80;20495;-80
2022/01/27 07:58:52;;;;;;;;;;;;;;;4.05;99.12;100081.47;1723200;80;20248;-84
2022/01/27 08:01:18;;;;;;;;;;;;;;;4.18;99.00;100076.98;1734811;80;20144;-82
2022/01/27 08:03:43;;;;;;;;;;;;;;;4.20;98.70;100071.16;1736344;80;21085;-80
2022/01/27 08:06:09;;;;;;;;;;;;;;;4.10;99.13;100081.95;1742421;80;20112;-83
2022/01/27 08:08:34;;;;;;;;;;;;;;;4.00;99.44;100062.70;1729913;80;20616;-81
2022/01/27 08:11:00;;;;;;;;;;;;;;;4.15;98.99;100044.55;1736072;80;21281;-87
2022/01/27 08:13:26;;;;;;;;;;;;;;;4.22;98.31;100039.20;1733252;80;20122;-80
2022/01/27 08:15:52;;;;;;;;;;;;;;;4.48;97.57;100042.89;1733780;80;21141;-84
2022/01/27 08:18:17;;;;;;;;;;;;;;;4.30;97.92;100046.45;1733116;80;20285;-81
2022/01/27 08:20:44;;;;;;;;;;;;;;;4.34;97.93;100052.30;1734180;81;20150;-85
2022/01/27 08:23:10;;;;;;;;;;;;;;;4.38;97.01;100055.00;1729890;81;20229;-80
2022/01/27 08:25:36;;;;;;;;;;;;;;;4.33;97.92;100043.59;1731716;81;20172;-80
2022/01/27 08:28:05;;;;;;;;;;;;;;;4.45;97.27;100044.44;1736655;81;21247;-83
2022/01/27 08:30:35;;;;;;;;;;;;;;;4.35;96.93;100045.64;1740839;81;20176;-80
2022/01/27 08:33:04;;;;;;;;;;;;;;;4.47;96.52;100035.99;1727378;81;20204;-78
2022/01/27 08:35:26;;;;;;;;;;;;;;;4.63;95.39;100019.47;1731466;81;20202;-84
2022/01/27 08:37:52;;;;;;;;;;;;;;;4.53;95.81;100006.75;1731584;81;20205;-86
2022/01/27 08:40:18;;;;;;;;;;;;;;;4.45;96.59;99997.38;1740813;81;21828;-84
2022/01/27 08:42:44;;;;;;;;;;;;;;;4.36;96.69;99988.95;1736092;81;20175;-81
2022/01/27 08:45:17;;;;;;;;;;;;;;;4.57;95.96;99996.41;1737609;81;20154;-83
2022/01/27 08:47:43;;;;;;;;;;;;;;;4.20;96.75;99986.22;1733953;81;20498;-82
2022/01/27 08:50:10;;;;;;;;;;;;;;;4.60;95.41;99998.78;1729604;81;20176;-82
2022/01/27 08:52:36;;;;;;;;;;;;;;;4.49;95.25;100000.13;1741291;81;21375;-84
2022/01/27 08:55:04;;;;;;;;;;;;;;;4.63;95.05;99993.77;1736684;81;20321;-85
2022/01/27 08:57:30;;;;;;;;;;;;;;;4.52;95.18;99968.47;1734788;81;20148;-81
2022/01/27 08:59:56;;;;;;;;;;;;;;;4.78;94.00;99995.66;1735095;81;20169;-80
2022/01/27 09:02:21;;;;;;;;;;;;;;;4.41;95.62;99972.41;1731107;81;20214;-80
2022/01/27 09:04:47;;;;;;;;;;;;;;;4.57;95.06;99972.88;1739274;81;21067;-79
2022/01/27 09:07:13;;;;;;;;;;;;;;;4.79;94.43;99964.63;1738071;81;20857;-81
2022/01/27 09:09:38;;;;;;;;;;;;;;;4.64;94.30;99976.65;1731527;81;20152;-80
2022/01/27 09:12:04;;;;;;;;;;;;;;;4.75;93.88;99998.52;1735552;81;20500;-79
2022/01/27 09:14:31;;;;;;;;;;;;;;;4.62;94.44;99974.64;1741295;81;20153;-81
2022/01/27 09:16:58;;;;;;;;;;;;;;;4.42;95.15;99976.70;1739053;81;21067;-78
2022/01/27 09:19:25;;;;;;;;;;;;;;;4.75;93.93;99968.44;1736174;80;20257;-80
2022/01/27 09:21:53;;;;;;;;;;;;;;;4.40;95.06;99973.39;1732889;81;20396;-86
2022/01/27 09:24:26;;;;;;;;;;;;;;;4.76;93.65;99968.80;1731131;80;20192;-83
2022/01/27 09:29:15;;;;;;;;;;;;;;;4.28;95.68;99961.61;1742247;80;20107;-81
2022/01/27 09:31:40;;;;;;;;;;;;;;;4.38;95.85;99949.13;1737257;80;20701;-80
2022/01/27 09:34:06;;;;;;;;;;;;;;;4.57;95.04;99949.80;1730216;80;20190;-90
2022/01/27 09:36:32;;;;;;;;;;;;;;;4.40;95.40;99943.33;1733173;80;20138;-83
2022/01/27 09:38:57;;;;;;;;;;;;;;;4.48;95.16;99931.77;1739929;80;20207;-89
2022/01/27 09:41:23;;;;;;;;;;;;;;;4.56;94.72;99948.16;1740027;81;21290;-86
2022/01/27 09:43:52;;;;;;;;;;;;;;;4.77;93.90;99932.50;1736891;80;20292;-82
2022/01/27 09:46:19;;;;;;;;;;;;;;;4.74;93.74;99937.98;1731037;81;20149;-87
2022/01/27 09:48:47;;;;;;;;;;;;;;;4.67;93.68;99934.55;1739132;81;20172;-84
2022/01/27 09:53:49;;;;;;;;;;;;;;;4.54;94.38;99927.36;1734549;80;20238;-84
2022/01/27 09:56:14;;;;;;;;;;;;;;;4.64;94.49;99924.34;1741462;80;20112;-81
2022/01/27 09:58:40;;;;;;;;;;;;;;;4.50;94.84;99918.09;1740617;80;20160;-79
2022/01/27 10:01:05;;;;;;;;;;;;;;;4.42;95.53;99943.53;1734963;81;20572;-82
2022/01/27 10:03:31;;;;;;;;;;;;;;;4.61;95.09;99924.59;1738920;80;20150;-81
2022/01/27 10:06:13;;;;;;;;;;;;;;;4.61;94.58;99913.30;1736122;81;21157;-86
2022/01/27 10:08:42;;;;;;;;;;;;;;;4.71;93.56;99911.63;1735155;81;20535;-81
2022/01/27 10:11:17;;;;;;;;;;;;;;;4.48;94.55;99928.67;1737165;80;20182;-82
2022/01/27 10:13:44;;;;;;;;;;;;;;;4.54;94.59;99932.59;1737731;81;20157;-84
2022/01/27 10:16:29;;;;;;;;;;;;;;;4.80;93.50;99898.25;1736555;80;20143;-79
2022/01/27 10:19:08;;;;;;;;;;;;;;;4.84;93.14;99893.13;1747496;81;21071;-81
2022/01/27 10:21:34;;;;;;;;;;;;;;;4.72;93.55;99875.82;1740681;80;20610;-78
2022/01/27 10:24:22;;;;;;;;;;;;;;;4.73;93.12;99874.88;1734375;80;20513;-83
2022/01/27 10:26:54;;;;;;;;;;;;;;;4.83;92.75;99878.37;1731590;80;20820;-81
2022/01/27 10:29:29;;;;;;;;;;;;;;;4.67;92.89;99879.63;1739392;81;20443;-79
2022/01/27 10:31:44;;;;;;;;;;;;;;;5.00;92.20;99869.98;1728714;81;20220;-80
2022/01/27 10:34:10;;;;;;;;;;;;;;;4.93;92.15;99868.83;1733357;81;20314;-79
2022/01/27 10:36:41;;;;;;;;;;;;;;;4.92;91.62;99887.27;1737427;81;20233;-84
2022/01/27 10:39:11;;;;;;;;;;;;;;;4.82;92.24;99858.42;1735670;81;20229;-80
2022/01/27 10:41:41;;;;;;;;;;;;;;;4.87;91.90;99864.09;1738521;81;36223;-83
2022/01/27 10:44:15;;;;;;;;;;;;;;;5.03;91.32;99861.89;1684238;81;21144;-83
2022/01/27 10:46:49;;;;;;;;;;;;;;;4.71;92.34;99851.91;1734570;80;20123;-85
2022/01/27 10:49:20;;;;;;;;;;;;;;;4.76;92.04;99869.39;1732067;81;20218;-81
2022/01/27 10:51:44;;;;;;;;;;;;;;;4.90;91.32;99858.61;1730682;81;20120;-79
2022/01/27 10:54:18;;;;;;;;;;;;;;;4.89;91.45;99837.32;1732831;81;20271;-85
2022/01/27 10:56:36;;;;;;;;;;;;;;;4.86;91.42;99836.27;1731309;81;20194;-82
2022/01/27 10:59:08;;;;;;;;;;;;;;;5.20;90.19;99837.38;1740283;81;20197;-82
2022/01/27 11:01:39;;;;;;;;;;;;;;;5.04;90.44;99832.13;1733698;81;20194;-81
2022/01/27 11:04:06;;;;;;;;;;;;;;;4.98;90.18;99826.09;1738578;81;20178;-82
2022/01/27 11:06:33;;;;;;;;;;;;;;;5.09;89.14;99819.14;1742676;81;20513;-87
2022/01/27 11:09:03;;;;;;;;;;;;;;;5.25;88.61;99812.97;1738968;81;21022;-84
2022/01/27 11:11:27;;;;;;;;;;;;;;;5.20;88.73;99805.51;1734006;81;20191;-81
2022/01/27 11:13:54;;;;;;;;;;;;;;;5.16;88.48;99807.20;1735394;80;20343;-85
2022/01/27 11:16:24;;;;;;;;;;;;;;;5.13;88.40;99804.84;1742047;80;20641;-84
2022/01/27 11:18:48;;;;;;;;;;;;;;;5.16;88.39;99811.13;1737368;81;20130;-83
2022/01/27 11:21:29;;;;;;;;;;;;;;;5.11;88.40;99792.34;1736259;80;21278;-87
2022/01/27 11:26:09;;;;;;;;;;;;;;;4.96;89.23;99784.84;1730341;80;20686;-87
2022/01/27 11:28:36;;;;;;;;;;;;;;;5.07;88.98;99773.95;1738999;80;20233;-82
2022/01/27 11:31:39;;;;;;;;;;;;;;;5.03;88.80;99772.06;1733740;80;20241;-83
2022/01/27 11:34:07;;;;;;;;;;;;;;;5.06;88.57;99773.11;1732845;80;22450;-87
2022/01/27 11:36:32;;;;;;;;;;;;;;;5.00;88.46;99749.62;1741805;80;20974;-82
2022/01/27 11:38:58;;;;;;;;;;;;;;;4.99;88.77;99765.45;1738203;80;20220;-81
2022/01/27 11:41:44;;;;;;;;;;;;;;;5.08;88.34;99748.12;1739650;81;21096;-84
2022/01/27 11:44:32;;;;;;;;;;;;;;;5.07;88.78;99759.08;1740676;80;20178;-80
2022/01/27 11:47:12;;;;;;;;;;;;;;;5.20;88.09;99760.16;1738857;81;21005;-83
2022/01/27 11:49:59;;;;;;;;;;;;;;;5.56;86.75;99742.22;1733366;81;20654;-82
2022/01/27 11:52:34;;;;;;;;;;;;;;;5.80;85.76;99738.44;1740814;81;20854;-80
2022/01/27 11:55:27;;;;;;;;;;;;;;;5.56;85.59;99732.59;1736541;81;20185;-81
2022/01/27 11:57:55;;;;;;;;;;;;;;;5.39;85.90;99730.13;1736905;81;20477;-81
2022/01/27 12:00:22;;;;;;;;;;;;;;;5.18;86.89;99748.51;1746715;81;20928;-84
2022/01/27 12:03:04;;;;;;;;;;;;;;;5.09;87.14;99747.17;1735494;80;20091;-83
2022/01/27 12:05:32;;;;;;;;;;;;;;;5.00;88.16;99710.83;1743849;81;20133;-83
2022/01/27 12:08:18;;;;;;;;;;;;;;;5.12;87.74;99718.12;1734956;80;20906;-86
2022/01/27 12:11:00;;;;;;;;;;;;;;;4.95;87.75;99720.38;1736702;80;20468;-83
2022/01/27 12:13:32;;;;;;;;;;;;;;;4.94;88.29;99721.35;1733023;81;20114;-85
2022/01/27 12:19:00;;;;;;;;;;;;;;;5.04;87.10;99689.98;1706405;81;20121;-84
2022/01/27 12:21:32;;;;;;;;;;;;;;;5.26;86.46;99682.41;1698468;82;20408;-82
2022/01/27 12:24:16;;;;;;;;;;;;;;;5.43;86.21;99674.88;1700980;82;20318;-85
2022/01/27 12:26:49;;;;;;;;;;;;;;;5.32;85.96;99677.95;1698912;82;21127;-81
2022/01/27 12:29:33;;;;;;;;;;;;;;;5.35;85.71;99701.24;1693683;83;20464;-80
2022/01/27 12:32:02;;;;;;;;;;;;;;;5.09;86.47;99673.89;1699261;83;20181;-82
2022/01/27 12:34:27;;;;;;;;;;;;;;;5.04;86.16;99656.78;1698141;83;20248;-82
2022/01/27 12:37:04;;;;;;;;;;;;;;;5.04;87.12;99663.33;1697193;83;20151;-82
2022/01/27 12:39:40;;;;;;;;;;;;;;;5.03;86.90;99645.98;1702966;83;21044;-80
2022/01/27 12:42:07;;;;;;;;;;;;;;;5.07;87.49;99631.33;1701743;83;20129;-80
2022/01/27 12:44:33;;;;;;;;;;;;;;;5.24;87.48;99630.67;1696246;83;20205;-82
2022/01/27 12:47:05;;;;;;;;;;;;;;;4.99;88.96;99645.89;1698817;83;20145;-85
2022/01/27 12:49:43;;;;;;;;;;;;;;;4.90;90.26;99645.38;1700032;83;20197;-82
2022/01/27 12:52:11;;;;;;;;;;;;;;;5.08;90.23;99643.44;1700620;83;21371;-83
2022/01/27 12:54:38;;;;;;;;;;;;;;;4.89;92.05;99630.63;1695883;83;20178;-83
2022/01/27 12:57:04;;;;;;;;;;;;;;;4.83;92.89;99632.47;1699283;83;20739;-80
2022/01/27 12:59:36;;;;;;;;;;;;;;;4.67;93.41;99612.86;1697201;82;20661;-81
2022/01/27 13:02:04;;;;;;;;;;;;;;;4.31;96.30;99628.09;1696173;82;20522;-81
2022/01/27 13:04:30;;;;;;;;;;;;;;;4.28;96.72;99633.58;1703681;82;21188;-84
2022/01/27 13:06:59;;;;;;;;;;;;;;;4.37;97.11;99618.92;1697187;82;20370;-85
2022/01/27 13:09:27;;;;;;;;;;;;;;;4.34;97.96;99619.67;1698455;83;20544;-85
2022/01/27 13:11:54;;;;;;;;;;;;;;;4.39;97.83;99609.16;1696434;83;20539;-85
2022/01/27 13:14:20;;;;;;;;;;;;;;;4.50;97.44;99603.02;1702987;83;20506;-83
2022/01/27 13:16:51;;;;;;;;;;;;;;;4.43;98.34;99608.44;1700085;83;21131;-85
2022/01/27 13:19:28;;;;;;;;;;;;;;;4.35;98.28;99606.92;1713669;81;20192;-82
2022/01/27 13:22:07;;;;;;;;;;;;;;;4.32;97.98;99600.20;1713007;81;20158;-83
2022/01/27 13:24:34;;;;;;;;;;;;;;;3.88;99.98;99604.23;1714917;81;20108;-82
2022/01/27 13:27:08;;;;;;;;;;;;;;;3.95;100.00;99611.92;1716267;81;20148;-86
2022/01/27 13:29:40;;;;;;;;;;;;;;;4.06;100.00;99593.23;1703248;81;22405;-78
2022/01/27 13:32:07;;;;;;;;;;;;;;;3.97;100.00;99595.30;1712742;82;20108;-82
2022/01/27 13:34:33;;;;;;;;;;;;;;;3.99;100.00;99590.77;1696263;82;20140;-87
2022/01/27 13:37:00;;;;;;;;;;;;;;;3.95;100.00;99591.02;1733244;81;20170;-85
2022/01/27 13:41:53;;;;;;;;;;;;;;;3.95;100.00;99579.27;1733803;81;20937;-82
2022/01/27 13:44:20;;;;;;;;;;;;;;;3.65;100.00;99596.16;1716010;81;20134;-84